createdAt,value
2018-11-12T00:00:50.179Z,97954.16
2018-11-12T00:03:19.630Z,97946.94
2018-11-12T00:05:49.445Z,97949.29
2018-11-12T00:08:19.257Z,97952.53
2018-11-12T00:10:49.578Z,97948.27
2018-11-12T00:13:38.006Z,97950.33
2018-11-12T00:16:08.027Z,97947.43
2018-11-12T00:18:38.142Z,97949.47
2018-11-12T00:21:07.566Z,97949.03
2018-11-12T00:23:56.074Z,97942.29
2018-11-12T00:26:26.339Z,97944.16
2018-11-12T00:28:56.430Z,97948.12
2018-11-12T00:31:26.109Z,97948.23
2018-11-12T00:33:56.496Z,97953.00
2018-11-12T00:36:26.625Z,97944.19
2018-11-12T00:38:56.822Z,97943.78
2018-11-12T00:41:26.715Z,97944.55
2018-11-12T00:44:15.155Z,97952.55
2018-11-12T00:46:44.972Z,97933.09
2018-11-12T00:49:34.000Z,97949.02
2018-11-12T00:52:03.529Z,97960.65
2018-11-12T00:54:33.007Z,97952.63
2018-11-12T00:57:02.801Z,97943.34
2018-11-12T00:59:32.915Z,97946.52
2018-11-12T01:02:02.383Z,97949.45
2018-11-12T01:04:50.778Z,97949.81
2018-11-12T01:07:39.426Z,97948.00
2018-11-12T01:10:11.113Z,97960.13
2018-11-12T01:12:40.791Z,97951.52
2018-11-12T01:15:12.567Z,97947.73
2018-11-12T01:17:42.789Z,97947.37
2018-11-12T01:20:13.438Z,97952.47
2018-11-12T01:23:01.903Z,97953.70
2018-11-12T01:25:32.058Z,97941.09
2018-11-12T01:28:01.539Z,97951.52
2018-11-12T01:30:31.227Z,97948.13
2018-11-12T01:33:00.690Z,97951.66
2018-11-12T01:35:49.180Z,97948.61
2018-11-12T01:38:18.622Z,97948.95
2018-11-12T01:40:48.344Z,97941.08
2018-11-12T01:43:18.175Z,97939.51
2018-11-12T01:45:47.882Z,97933.02
2018-11-12T01:48:17.625Z,97924.73
2018-11-12T01:50:47.119Z,97927.70
2018-11-12T01:53:16.844Z,97941.34
2018-11-12T01:55:46.300Z,97938.33
2018-11-12T01:58:15.775Z,97931.42
2018-11-12T02:00:45.245Z,97931.89
2018-11-12T02:03:14.692Z,97921.55
2018-11-12T02:05:44.175Z,97922.45
2018-11-12T02:08:13.862Z,97918.84
2018-11-12T02:11:02.533Z,97922.93
2018-11-12T02:13:32.224Z,97922.51
2018-11-12T02:16:02.288Z,97920.78
2018-11-12T02:18:31.710Z,97918.70
2018-11-12T02:21:01.150Z,97918.30
2018-11-12T02:23:49.252Z,97912.75
2018-11-12T02:26:18.698Z,97914.17
2018-11-12T02:29:07.144Z,97904.03
2018-11-12T02:31:36.628Z,97905.55
2018-11-12T02:34:24.984Z,97901.31
2018-11-12T02:36:55.370Z,97902.98
2018-11-12T02:39:44.003Z,97902.21
2018-11-12T02:42:13.449Z,97915.73
2018-11-12T02:44:44.170Z,97912.75
2018-11-12T02:47:32.591Z,97913.63
2018-11-12T02:50:02.270Z,97908.61
2018-11-12T02:52:31.973Z,97908.55
2018-11-12T02:55:01.678Z,97907.41
2018-11-12T02:57:31.142Z,97906.69
2018-11-12T03:00:00.871Z,97907.63
2018-11-12T03:02:30.596Z,97891.02
2018-11-12T03:05:00.699Z,97900.77
2018-11-12T03:07:30.209Z,97900.52
2018-11-12T03:10:00.237Z,97892.42
2018-11-12T03:12:48.904Z,97892.73
2018-11-12T03:15:19.031Z,97891.76
2018-11-12T03:17:49.882Z,97882.59
2018-11-12T03:20:20.491Z,97894.11
2018-11-12T03:23:08.923Z,97896.18
2018-11-12T03:25:38.607Z,97897.63
2018-11-12T03:28:08.023Z,97889.33
2018-11-12T03:30:38.119Z,97890.14
2018-11-12T03:33:07.710Z,97884.70
2018-11-12T03:35:56.184Z,97883.98
2018-11-12T03:38:26.323Z,97889.72
2018-11-12T03:40:56.098Z,97900.23
2018-11-12T03:43:44.486Z,97893.03
2018-11-12T03:46:14.408Z,97899.73
2018-11-12T03:48:44.371Z,97898.75
2018-11-12T03:51:14.109Z,97893.39
2018-11-12T03:53:43.921Z,97908.16
2018-11-12T03:56:13.705Z,97901.20
2018-11-12T03:58:43.751Z,97911.94
2018-11-12T04:01:13.242Z,97918.27
2018-11-12T04:03:42.945Z,97917.77
2018-11-12T04:06:12.817Z,97918.36
2018-11-12T04:08:42.261Z,97905.25
2018-11-12T04:11:11.732Z,97898.05
2018-11-12T04:14:00.110Z,97903.55
2018-11-12T04:16:29.544Z,97902.78
2018-11-12T04:18:58.976Z,97903.04
2018-11-12T04:21:47.357Z,97900.38
2018-11-12T04:24:17.040Z,97898.48
2018-11-12T04:27:05.508Z,97899.64
2018-11-12T04:29:35.328Z,97898.73
2018-11-12T04:32:23.705Z,97891.98
2018-11-12T04:35:12.242Z,97893.19
2018-11-12T04:37:41.943Z,97889.34
2018-11-12T04:40:14.402Z,97891.26
2018-11-12T04:42:44.480Z,97901.06
2018-11-12T04:45:15.262Z,97901.89
2018-11-12T04:47:45.472Z,97896.22
2018-11-12T04:50:16.963Z,97895.27
2018-11-12T04:52:46.749Z,97898.34
2018-11-12T04:55:34.917Z,97898.84
2018-11-12T04:58:05.231Z,97900.22
2018-11-12T05:00:34.669Z,97900.57
2018-11-12T05:03:23.082Z,97913.38
2018-11-12T05:05:52.506Z,97918.84
2018-11-12T05:08:22.594Z,97910.96
2018-11-12T05:10:52.040Z,97903.09
2018-11-12T05:13:40.443Z,97902.53
2018-11-12T05:16:09.889Z,97900.72
2018-11-12T05:18:39.309Z,97886.52
2018-11-12T05:21:08.737Z,97889.71
2018-11-12T05:23:39.455Z,97895.28
2018-11-12T05:26:27.856Z,97879.26
2018-11-12T05:28:57.325Z,97874.84
2018-11-12T05:31:26.753Z,97880.52
2018-11-12T05:34:15.484Z,97878.88
2018-11-12T05:36:44.914Z,97876.51
2018-11-12T05:39:14.646Z,97876.15
2018-11-12T05:41:44.392Z,97879.34
2018-11-12T05:44:13.824Z,97879.02
2018-11-12T05:47:01.938Z,97878.58
2018-11-12T05:49:31.634Z,97879.75
2018-11-12T05:52:01.460Z,97882.06
2018-11-12T05:54:31.321Z,97891.38
2018-11-12T05:57:01.023Z,97895.54
2018-11-12T05:59:30.718Z,97890.14
2018-11-12T06:02:00.705Z,97888.45
2018-11-12T06:04:30.137Z,97885.37
2018-11-12T06:06:59.607Z,97885.53
2018-11-12T06:09:29.321Z,97892.02
2018-11-12T06:12:17.451Z,97895.81
2018-11-12T06:14:47.499Z,97898.03
2018-11-12T06:17:16.945Z,97895.28
2018-11-12T06:19:46.380Z,97898.35
2018-11-12T06:22:16.403Z,97897.19
2018-11-12T06:24:45.830Z,97898.24
2018-11-12T06:27:34.289Z,97904.37
2018-11-12T06:30:04.105Z,97897.81
2018-11-12T06:32:33.867Z,97894.05
2018-11-12T06:35:22.515Z,97897.58
2018-11-12T06:38:11.111Z,97907.81
2018-11-12T06:40:40.819Z,97900.48
2018-11-12T06:43:28.926Z,97894.02
2018-11-12T06:46:17.045Z,97902.04
2018-11-12T06:48:47.138Z,97905.41
2018-11-12T06:51:16.851Z,97906.66
2018-11-12T06:53:46.300Z,97914.42
2018-11-12T06:56:15.730Z,97922.30
2018-11-12T06:58:45.988Z,97915.32
2018-11-12T07:01:15.835Z,97922.20
2018-11-12T07:03:45.271Z,97923.41
2018-11-12T07:06:15.404Z,97918.77
2018-11-12T07:08:45.460Z,97917.63
2018-11-12T07:11:34.150Z,97925.05
2018-11-12T07:14:03.583Z,97917.73
2018-11-12T07:16:33.014Z,97924.34
2018-11-12T07:19:02.850Z,97929.30
2018-11-12T07:21:32.570Z,97935.73
2018-11-12T07:24:02.347Z,97931.06
2018-11-12T07:26:32.091Z,97931.45
2018-11-12T07:29:02.729Z,97937.23
2018-11-12T07:31:32.162Z,97942.80
2018-11-12T07:34:01.869Z,97949.70
2018-11-12T07:36:31.384Z,97939.73
2018-11-12T07:39:01.159Z,97950.46
2018-11-12T07:41:31.114Z,97946.39
2018-11-12T07:44:00.574Z,97946.79
2018-11-12T07:46:30.147Z,97958.33
2018-11-12T07:49:00.353Z,97952.10
2018-11-12T07:51:49.245Z,97958.27
2018-11-12T07:54:19.054Z,97953.46
2018-11-12T07:56:48.948Z,97952.73
2018-11-12T07:59:18.438Z,97958.22
2018-11-12T08:01:47.953Z,97955.23
2018-11-12T08:04:17.790Z,97955.88
2018-11-12T08:06:47.526Z,97951.98
2018-11-12T08:09:17.818Z,97957.16
2018-11-12T08:12:06.561Z,97955.91
2018-11-12T08:14:54.840Z,97956.92
2018-11-12T08:17:43.791Z,97957.26
2018-11-12T08:20:32.263Z,97961.16
2018-11-12T08:23:02.018Z,97959.34
2018-11-12T08:25:31.830Z,97957.64
2018-11-12T08:28:20.162Z,97955.57
2018-11-12T08:30:49.927Z,97967.39
2018-11-12T08:33:19.665Z,97965.54
2018-11-12T08:35:49.159Z,97965.81
2018-11-12T08:38:19.215Z,97967.59
2018-11-12T08:40:48.914Z,97959.42
2018-11-12T08:43:18.536Z,97959.80
2018-11-12T08:45:48.280Z,97962.45
2018-11-12T08:48:18.067Z,97968.23
2018-11-12T08:50:47.992Z,97963.84
2018-11-12T08:53:17.408Z,97959.90
2018-11-12T08:55:47.279Z,97952.30
2018-11-12T08:58:17.991Z,97960.40
2018-11-12T09:00:46.628Z,97954.81
2018-11-12T09:03:35.254Z,97954.23
2018-11-12T09:06:04.912Z,97954.23
2018-11-12T09:08:35.694Z,97952.23
2018-11-12T09:11:05.652Z,97954.64
2018-11-12T09:13:35.393Z,97945.23
2018-11-12T09:16:24.320Z,97964.65
2018-11-12T09:18:54.912Z,97966.59
2018-11-12T09:21:24.751Z,97966.59
2018-11-12T09:23:54.848Z,97976.86
2018-11-12T09:26:24.898Z,97976.86
2018-11-12T09:29:14.405Z,97986.70
2018-11-12T09:31:44.558Z,97986.70
2018-11-12T09:34:14.654Z,97988.87
2018-11-12T09:37:03.290Z,97982.97
2018-11-12T09:39:52.298Z,97988.42
2018-11-12T09:42:22.165Z,97988.42
2018-11-12T09:44:52.238Z,97984.53
2018-11-12T09:47:21.717Z,97995.05
2018-11-12T09:49:51.602Z,97997.88
2018-11-12T09:52:21.037Z,98005.09
2018-11-12T09:55:09.799Z,98006.78
2018-11-12T09:57:40.106Z,98015.50
2018-11-12T10:00:15.314Z,98001.04
2018-11-12T10:02:47.171Z,98001.04
2018-11-12T10:05:36.273Z,97996.64
2018-11-12T10:08:29.190Z,97996.64
2018-11-12T10:11:01.342Z,98012.33
2018-11-12T10:13:50.242Z,98012.33
2018-11-12T10:16:19.844Z,98029.72
2018-11-12T10:18:46.996Z,98024.77
2018-11-12T10:21:35.748Z,97999.83
2018-11-12T10:24:24.206Z,98025.09
2018-11-12T10:26:53.700Z,98025.09
2018-11-12T10:29:23.166Z,98027.61
2018-11-12T10:31:53.950Z,98031.59
2018-11-12T10:34:24.039Z,98031.81
2018-11-12T10:37:12.232Z,98036.77
2018-11-12T10:39:41.755Z,98036.77
2018-11-12T10:42:11.544Z,98040.06
2018-11-12T10:45:00.116Z,98041.84
2018-11-12T10:47:48.699Z,98041.84
2018-11-12T10:50:18.154Z,98026.87
2018-11-12T10:52:48.083Z,98032.17
2018-11-12T10:55:19.484Z,98029.42
2018-11-12T10:58:07.926Z,98031.33
2018-11-12T11:00:56.655Z,98032.11
2018-11-12T11:03:45.001Z,98035.08
2018-11-12T11:06:14.475Z,98027.88
2018-11-12T11:08:44.417Z,98027.88
2018-11-12T11:11:14.188Z,98042.24
2018-11-12T11:14:02.688Z,98039.77
2018-11-12T11:16:51.139Z,98037.31
2018-11-12T11:19:21.621Z,98016.93
2018-11-12T11:22:10.517Z,98027.94
2018-11-12T11:24:42.449Z,98023.77
2018-11-12T11:27:12.543Z,98001.48
2018-11-12T11:29:42.509Z,98030.66
2018-11-12T11:32:11.976Z,98021.11
2018-11-12T11:34:41.547Z,98021.48
2018-11-12T11:37:11.000Z,98025.59
2018-11-12T11:39:41.036Z,98022.67
2018-11-12T11:42:29.441Z,98015.21
2018-11-12T11:44:58.947Z,98029.98
2018-11-12T11:47:48.396Z,98029.98
2018-11-12T11:50:37.077Z,98042.24
2018-11-12T11:53:06.790Z,98036.59
2018-11-12T11:55:36.606Z,98036.88
2018-11-12T11:58:06.352Z,98036.88
2018-11-12T12:00:54.921Z,98031.95
2018-11-12T12:03:24.631Z,98031.95
2018-11-12T12:05:57.062Z,98045.26
2018-11-12T12:08:26.713Z,98035.08
2018-11-12T12:10:56.602Z,98053.50
2018-11-12T12:13:26.470Z,98012.45
2018-11-12T12:15:56.006Z,98030.70
2018-11-12T12:18:26.298Z,98030.70
2018-11-12T12:20:56.124Z,98043.14
2018-11-12T12:23:25.512Z,98036.67
2018-11-12T12:26:13.944Z,98033.08
2018-11-12T12:28:44.451Z,98033.08
2018-11-12T12:31:14.322Z,98030.62
2018-11-12T12:34:02.666Z,98028.45
2018-11-12T12:36:32.867Z,98022.23
2018-11-12T12:39:02.550Z,98037.20
2018-11-12T12:41:32.715Z,98037.25
2018-11-12T12:44:21.369Z,98039.92
2018-11-12T12:46:52.407Z,98040.09
2018-11-12T12:49:39.230Z,98033.66
2018-11-12T12:52:27.963Z,98024.16
2018-11-12T12:55:16.164Z,98033.37
2018-11-12T12:57:46.283Z,98032.79
2018-11-12T13:00:34.735Z,98029.55
2018-11-12T13:03:04.711Z,98024.48
2018-11-12T13:05:36.389Z,98034.14
2018-11-12T13:08:25.623Z,98033.45
2018-11-12T13:10:56.649Z,98033.45
2018-11-12T13:13:26.076Z,98020.47
2018-11-12T13:16:14.946Z,98025.63
2018-11-12T13:18:44.388Z,98025.63
2018-11-12T13:21:14.523Z,98025.17
2018-11-12T13:23:43.883Z,98025.17
2018-11-12T13:26:13.792Z,98037.33
2018-11-12T13:28:43.593Z,98037.20
2018-11-12T13:31:13.085Z,98032.87
2018-11-12T13:33:42.886Z,98036.13
2018-11-12T13:36:12.885Z,98042.39
2018-11-12T13:38:42.331Z,98039.10
2018-11-12T13:41:30.990Z,98036.90
2018-11-12T13:44:19.412Z,98037.11
2018-11-12T13:47:07.834Z,98036.09
2018-11-12T13:49:37.583Z,98032.97
2018-11-12T13:52:07.180Z,98042.08
2018-11-12T13:54:36.645Z,98039.77
2018-11-12T13:57:06.630Z,98048.99
2018-11-12T13:59:36.466Z,98036.56
2018-11-12T14:02:06.245Z,98041.83
2018-11-12T14:04:36.045Z,98044.16
2018-11-12T14:07:24.599Z,98049.13
2018-11-12T14:09:54.933Z,98061.12
2018-11-12T14:12:44.089Z,98044.54
2018-11-12T14:15:33.158Z,98056.13
2018-11-12T14:18:02.928Z,98056.13
2018-11-12T14:20:32.781Z,98046.72
2018-11-12T14:23:02.211Z,98046.72
2018-11-12T14:25:31.667Z,98054.30
2018-11-12T14:28:01.201Z,98050.83
2018-11-12T14:30:31.518Z,98050.83
2018-11-12T14:33:20.078Z,98058.33
2018-11-12T14:35:49.555Z,98055.02
2018-11-12T14:38:19.452Z,98054.68
2018-11-12T14:40:48.926Z,98042.27
2018-11-12T14:43:18.449Z,98066.46
2018-11-12T14:45:48.380Z,98063.94
2018-11-12T14:48:17.913Z,98056.32
2018-11-12T14:51:06.576Z,98064.55
2018-11-12T14:53:36.636Z,98064.55
2018-11-12T14:56:06.280Z,98063.53
2018-11-12T14:58:55.015Z,98055.83
2018-11-12T15:01:44.166Z,98062.77
2018-11-12T15:04:32.529Z,98048.31
2018-11-12T15:07:21.607Z,98060.00
2018-11-12T15:09:51.427Z,98060.00
2018-11-12T15:12:21.163Z,98061.28
2018-11-12T15:15:09.453Z,98041.59
2018-11-12T15:17:38.868Z,98062.63
2018-11-12T15:20:28.453Z,98069.92
2018-11-12T15:23:17.257Z,98080.71
2018-11-12T15:26:05.796Z,98075.52
2018-11-12T15:28:54.844Z,98076.80
2018-11-12T15:31:25.059Z,98076.80
2018-11-12T15:33:54.525Z,98081.42
2018-11-12T15:36:24.632Z,98080.85
2018-11-12T15:38:54.332Z,98080.85
2018-11-12T15:41:42.435Z,98077.26
2018-11-12T15:44:11.882Z,98085.94
2018-11-12T15:47:00.577Z,98087.11
2018-11-12T15:49:49.054Z,98099.93
2018-11-12T15:52:18.569Z,98099.93
2018-11-12T15:55:07.080Z,98100.74
2018-11-12T15:57:36.673Z,98098.78
2018-11-12T16:00:07.230Z,98098.78
2018-11-12T16:02:56.116Z,98116.70
2018-11-12T16:05:25.558Z,98116.70
2018-11-12T16:08:14.675Z,98126.55
2018-11-12T16:10:44.562Z,98126.55
2018-11-12T16:13:14.782Z,98132.69
2018-11-12T16:15:44.215Z,98129.86
2018-11-12T16:18:14.486Z,98141.70
2018-11-12T16:20:43.927Z,98141.70
2018-11-12T16:23:13.913Z,98144.45
2018-11-12T16:26:02.396Z,98150.83
2018-11-12T16:28:31.824Z,98150.83
2018-11-12T16:31:02.278Z,98156.26
2018-11-12T16:33:31.764Z,98152.31
2018-11-12T16:36:01.897Z,98151.61
2018-11-12T16:38:31.806Z,98156.13
2018-11-12T16:41:20.189Z,98161.09
2018-11-12T16:44:09.409Z,98176.06
2018-11-12T16:46:39.167Z,98176.06
2018-11-12T16:49:09.006Z,98175.13
2018-11-12T16:51:38.715Z,98178.24
2018-11-12T16:54:08.271Z,98181.95
2018-11-12T16:56:38.080Z,98181.48
2018-11-12T16:59:26.202Z,98189.59
2018-11-12T17:01:56.596Z,98194.70
2018-11-12T17:04:45.337Z,98201.39
2018-11-12T17:07:33.802Z,98187.63
2018-11-12T17:10:23.662Z,98187.97
2018-11-12T17:12:53.744Z,98187.97
2018-11-12T17:15:23.208Z,98202.20
2018-11-12T17:17:52.991Z,98195.98
2018-11-12T17:20:22.958Z,98204.77
2018-11-12T17:23:11.660Z,98210.30
2018-11-12T17:25:41.052Z,98195.81
2018-11-12T17:28:29.506Z,98208.33
2018-11-12T17:31:18.520Z,98198.39
2018-11-12T17:34:07.337Z,98204.23
2018-11-12T17:36:37.401Z,98204.23
2018-11-12T17:39:26.811Z,98204.11
2018-11-12T17:41:56.869Z,98204.11
2018-11-12T17:44:45.270Z,98209.23
2018-11-12T17:47:14.743Z,98206.91
2018-11-12T17:49:44.326Z,98218.83
2018-11-12T17:52:32.712Z,98218.11
2018-11-12T17:55:02.902Z,98213.02
2018-11-12T17:57:32.319Z,98216.27
2018-11-12T18:00:40.212Z,98219.86
2018-11-12T18:03:28.479Z,98219.86
2018-11-12T18:05:57.960Z,98221.94
2018-11-12T18:08:27.948Z,98218.24
2018-11-12T18:11:16.677Z,98209.70
2018-11-12T18:13:53.633Z,98209.70
2018-11-12T18:16:42.162Z,98221.17
2018-11-12T18:19:11.604Z,98221.17
2018-11-12T18:22:00.142Z,98225.55
2018-11-12T18:24:29.629Z,98228.24
2018-11-12T18:26:59.451Z,98226.95
2018-11-12T18:29:29.248Z,98232.19
2018-11-12T18:32:17.669Z,98242.26
2018-11-12T18:35:06.305Z,98243.52
2018-11-12T18:37:54.550Z,98243.52
2018-11-12T18:40:42.545Z,98235.89
2018-11-12T18:43:12.044Z,98242.63
2018-11-12T18:45:41.478Z,98221.64
2018-11-12T18:48:11.232Z,98246.88
2018-11-12T18:50:59.678Z,98245.61
2018-11-12T18:53:48.454Z,98248.27
2018-11-12T18:56:17.906Z,98248.27
2018-11-12T18:58:47.393Z,98251.61
2018-11-12T19:01:35.507Z,98248.67
2018-11-12T19:04:23.975Z,98252.42
2018-11-12T19:07:12.136Z,98252.42
2018-11-12T19:09:42.515Z,98254.92
2018-11-12T19:12:30.969Z,98252.75
2018-11-12T19:15:00.563Z,98254.70
2018-11-12T19:17:50.542Z,98245.80
2018-11-12T19:20:38.980Z,98268.36
2018-11-12T19:23:08.452Z,98268.36
2018-11-12T19:25:37.907Z,98268.09
2018-11-12T19:28:07.360Z,98273.94
2018-11-12T19:30:37.172Z,98278.57
2018-11-12T19:33:06.731Z,98277.96
2018-11-12T19:35:37.520Z,98282.64
2018-11-12T19:38:07.301Z,98286.41
2018-11-12T19:40:36.797Z,98280.34
2018-11-12T19:43:24.932Z,98274.19
2018-11-12T19:46:13.310Z,98282.09
2018-11-12T19:48:43.608Z,98276.25
2018-11-12T19:51:32.158Z,98272.38
2018-11-12T19:54:20.431Z,98285.72
2018-11-12T19:57:08.677Z,98285.66
2018-11-12T19:59:56.773Z,98278.88
2018-11-12T20:02:26.255Z,98282.84
2018-11-12T20:04:55.727Z,98274.24
2018-11-12T20:07:25.179Z,98273.14
2018-11-12T20:09:54.669Z,98274.10
2018-11-12T20:12:24.630Z,98278.23
2018-11-12T20:14:54.379Z,98283.20
2018-11-12T20:17:24.240Z,98285.83
2018-11-12T20:19:54.056Z,98285.75
2018-11-12T20:22:23.793Z,98281.22
2018-11-12T20:24:53.510Z,98288.22
2018-11-12T20:27:23.607Z,98289.59
2018-11-12T20:29:53.385Z,98289.83
2018-11-12T20:32:22.868Z,98282.42
2018-11-12T20:34:52.707Z,98285.11
2018-11-12T20:37:41.232Z,98284.21
2018-11-12T20:40:12.014Z,98291.77
2018-11-12T20:42:42.646Z,98280.67
2018-11-12T20:45:13.517Z,98284.33
2018-11-12T20:47:44.397Z,98283.12
2018-11-12T20:50:14.619Z,98284.05
2018-11-12T20:52:44.542Z,98289.98
2018-11-12T20:55:15.291Z,98286.41
2018-11-12T20:57:45.301Z,98295.16
2018-11-12T21:00:34.383Z,98295.42
2018-11-12T21:03:04.331Z,98295.83
2018-11-12T21:05:33.807Z,98291.42
2018-11-12T21:08:22.634Z,98291.58
2018-11-12T21:10:52.106Z,98282.61
2018-11-12T21:13:22.512Z,98278.46
2018-11-12T21:15:52.076Z,98287.02
2018-11-12T21:18:21.519Z,98291.63
2018-11-12T21:20:51.122Z,98288.78
2018-11-12T21:23:20.587Z,98290.46
2018-11-12T21:25:50.037Z,98286.37
2018-11-12T21:28:19.807Z,98289.22
2018-11-12T21:30:49.278Z,98285.55
2018-11-12T21:33:18.991Z,98288.80
2018-11-12T21:35:49.268Z,98292.13
2018-11-12T21:38:18.698Z,98296.13
2018-11-12T21:41:07.407Z,98292.52
2018-11-12T21:43:56.214Z,98293.97
2018-11-12T21:46:25.663Z,98298.79
2018-11-12T21:48:56.522Z,98295.23
2018-11-12T21:51:44.688Z,98302.78
2018-11-12T21:54:14.456Z,98302.67
2018-11-12T21:56:44.318Z,98307.73
2018-11-12T21:59:14.518Z,98302.02
2018-11-12T22:01:44.733Z,98298.78
2018-11-12T22:04:15.064Z,98300.66
2018-11-12T22:07:04.078Z,98299.46
2018-11-12T22:09:34.000Z,98298.34
2018-11-12T22:12:03.436Z,98297.67
2018-11-12T22:14:33.317Z,98297.94
2018-11-12T22:17:03.423Z,98304.17
2018-11-12T22:19:33.072Z,98295.72
2018-11-12T22:22:02.671Z,98296.55
2018-11-12T22:24:32.686Z,98301.34
2018-11-12T22:27:02.222Z,98302.53
2018-11-12T22:29:33.708Z,98303.08
2018-11-12T22:32:03.435Z,98299.92
2018-11-12T22:34:33.175Z,98302.37
2018-11-12T22:37:02.837Z,98309.78
2018-11-12T22:39:32.800Z,98305.41
2018-11-12T22:42:02.400Z,98301.30
2018-11-12T22:44:32.703Z,98306.69
2018-11-12T22:47:04.490Z,98304.70
2018-11-12T22:49:34.129Z,98307.32
2018-11-12T22:52:03.774Z,98302.61
2018-11-12T22:54:35.599Z,98307.73
2018-11-12T22:57:07.886Z,98308.63
2018-11-12T22:59:37.551Z,98302.84
2018-11-12T23:02:09.750Z,98296.33
2018-11-12T23:04:58.363Z,98301.30
2018-11-12T23:07:27.983Z,98300.56
2018-11-12T23:10:16.970Z,98291.55
2018-11-12T23:12:46.461Z,98302.61
2018-11-12T23:15:34.903Z,98303.73
2018-11-12T23:18:04.442Z,98305.30
2018-11-12T23:20:33.934Z,98300.33
2018-11-12T23:23:22.316Z,98303.21
2018-11-12T23:25:52.459Z,98299.09
2018-11-12T23:28:40.932Z,98298.34
2018-11-12T23:31:29.042Z,98301.16
2018-11-12T23:33:58.510Z,98301.45
2018-11-12T23:36:27.993Z,98303.25
2018-11-12T23:38:57.509Z,98303.17
2018-11-12T23:41:26.953Z,98306.30
2018-11-12T23:43:57.058Z,98309.78
2018-11-12T23:46:26.506Z,98314.27
2018-11-12T23:48:56.324Z,98305.92
2018-11-12T23:51:44.429Z,98311.17
2018-11-12T23:54:33.145Z,98313.71
2018-11-12T23:57:03.736Z,98310.72
2018-11-12T23:59:33.595Z,98312.48
